11/29 12:00 更新

3,000ftに雲が少し
15,000ftに雲が散在
20,000ftに雲が多い

地上風: 060°8kt
(030°~ 090°で変動)

上空風
13,000ft: 250°34kt
10,000ft: 未計測
 7,000ft: 230°15kt
 3,000ft: 140°8kt

地上: 11℃
上空: -12.8℃

日没: 16:28

RJTJ 290300Z 06008KT 030V090 9999 FEW030 SCT150 BKN200 11/M00 Q1021 RMK 1CU030 4AC150 A3016 FU LYR NE-E=